sensor_id;sensor_type;location;lat;lon;timestamp;temperature;humidity
70154;DHT22;57519;51.494;-2.626;2023-04-06T00:01:36;10.08;94.49
70154;DHT22;57519;51.494;-2.626;2023-04-06T00:04:02;10.08;94.54
70154;DHT22;57519;51.494;-2.626;2023-04-06T00:06:28;10.05;94.64
70154;DHT22;57519;51.494;-2.626;2023-04-06T00:08:53;10.06;94.67
70154;DHT22;57519;51.494;-2.626;2023-04-06T00:11:19;10.04;94.76
70154;DHT22;57519;51.494;-2.626;2023-04-06T00:13:45;10.06;94.72
70154;DHT22;57519;51.494;-2.626;2023-04-06T00:16:10;10.08;94.72
70154;DHT22;57519;51.494;-2.626;2023-04-06T00:18:36;10.05;94.73
70154;DHT22;57519;51.494;-2.626;2023-04-06T00:21:02;10.06;94.74
70154;DHT22;57519;51.494;-2.626;2023-04-06T00:23:27;10.09;94.69
70154;DHT22;57519;51.494;-2.626;2023-04-06T00:25:52;10.08;94.73
70154;DHT22;57519;51.494;-2.626;2023-04-06T00:28:18;10.12;94.73
70154;DHT22;57519;51.494;-2.626;2023-04-06T00:30:50;10.09;94.69
70154;DHT22;57519;51.494;-2.626;2023-04-06T00:33:17;10.06;94.71
70154;DHT22;57519;51.494;-2.626;2023-04-06T00:35:42;10.08;94.72
70154;DHT22;57519;51.494;-2.626;2023-04-06T00:38:08;10.14;94.69
70154;DHT22;57519;51.494;-2.626;2023-04-06T00:40:33;10.14;94.56
70154;DHT22;57519;51.494;-2.626;2023-04-06T00:43:00;10.15;94.37
70154;DHT22;57519;51.494;-2.626;2023-04-06T00:45:25;10.14;94.29
70154;DHT22;57519;51.494;-2.626;2023-04-06T00:47:50;10.18;94.29
70154;DHT22;57519;51.494;-2.626;2023-04-06T00:50:17;10.14;94.38
70154;DHT22;57519;51.494;-2.626;2023-04-06T00:52:42;10.15;94.42
70154;DHT22;57519;51.494;-2.626;2023-04-06T00:55:08;10.14;94.47
70154;DHT22;57519;51.494;-2.626;2023-04-06T00:57:33;10.09;94.52
70154;DHT22;57519;51.494;-2.626;2023-04-06T00:59:59;10.11;94.56
70154;DHT22;57519;51.494;-2.626;2023-04-06T01:02:25;10.12;94.61
70154;DHT22;57519;51.494;-2.626;2023-04-06T01:04:52;10.11;94.51
70154;DHT22;57519;51.494;-2.626;2023-04-06T01:07:19;10.12;94.56
70154;DHT22;57519;51.494;-2.626;2023-04-06T01:09:44;10.14;94.57
70154;DHT22;57519;51.494;-2.626;2023-04-06T01:12:09;10.15;94.46
70154;DHT22;57519;51.494;-2.626;2023-04-06T01:14:35;10.11;94.41
70154;DHT22;57519;51.494;-2.626;2023-04-06T01:17:00;10.14;94.48
70154;DHT22;57519;51.494;-2.626;2023-04-06T01:19:26;10.16;94.48
70154;DHT22;57519;51.494;-2.626;2023-04-06T01:21:52;10.15;94.46
70154;DHT22;57519;51.494;-2.626;2023-04-06T01:24:19;10.15;94.34
70154;DHT22;57519;51.494;-2.626;2023-04-06T01:26:44;10.11;94.35
70154;DHT22;57519;51.494;-2.626;2023-04-06T01:29:10;10.14;94.41
70154;DHT22;57519;51.494;-2.626;2023-04-06T01:31:36;10.12;94.28
70154;DHT22;57519;51.494;-2.626;2023-04-06T01:34:02;10.14;94.35
70154;DHT22;57519;51.494;-2.626;2023-04-06T01:36:27;10.14;94.34
70154;DHT22;57519;51.494;-2.626;2023-04-06T01:38:52;10.15;94.24
70154;DHT22;57519;51.494;-2.626;2023-04-06T01:41:18;10.19;94.11
70154;DHT22;57519;51.494;-2.626;2023-04-06T01:43:45;10.19;93.99
70154;DHT22;57519;51.494;-2.626;2023-04-06T01:46:10;10.16;94.02
70154;DHT22;57519;51.494;-2.626;2023-04-06T01:48:36;10.19;94.02
70154;DHT22;57519;51.494;-2.626;2023-04-06T01:51:01;10.21;94.06
70154;DHT22;57519;51.494;-2.626;2023-04-06T01:53:27;10.21;94.14
70154;DHT22;57519;51.494;-2.626;2023-04-06T01:55:52;10.15;94.35
70154;DHT22;57519;51.494;-2.626;2023-04-06T01:58:18;10.15;94.58
70154;DHT22;57519;51.494;-2.626;2023-04-06T02:00:43;10.21;94.61
70154;DHT22;57519;51.494;-2.626;2023-04-06T02:03:08;10.21;94.76
70154;DHT22;57519;51.494;-2.626;2023-04-06T02:05:34;10.16;95.03
70154;DHT22;57519;51.494;-2.626;2023-04-06T02:08:04;10.14;95.12
70154;DHT22;57519;51.494;-2.626;2023-04-06T02:10:31;10.11;95.33
70154;DHT22;57519;51.494;-2.626;2023-04-06T02:12:56;10.14;95.36
70154;DHT22;57519;51.494;-2.626;2023-04-06T02:15:22;10.04;95.21
70154;DHT22;57519;51.494;-2.626;2023-04-06T02:17:47;10.04;95.33
70154;DHT22;57519;51.494;-2.626;2023-04-06T02:20:12;10.01;95.06
70154;DHT22;57519;51.494;-2.626;2023-04-06T02:22:39;10.02;94.92
70154;DHT22;57519;51.494;-2.626;2023-04-06T02:25:04;9.94;94.95
70154;DHT22;57519;51.494;-2.626;2023-04-06T02:27:30;9.90;95.08
70154;DHT22;57519;51.494;-2.626;2023-04-06T02:29:55;9.93;95.07
70154;DHT22;57519;51.494;-2.626;2023-04-06T02:32:21;9.90;94.90
70154;DHT22;57519;51.494;-2.626;2023-04-06T02:34:46;9.87;94.94
70154;DHT22;57519;51.494;-2.626;2023-04-06T02:37:11;9.81;95.03
70154;DHT22;57519;51.494;-2.626;2023-04-06T02:39:37;9.78;94.94
70154;DHT22;57519;51.494;-2.626;2023-04-06T02:42:02;9.81;94.91
70154;DHT22;57519;51.494;-2.626;2023-04-06T02:44:29;9.77;94.76
70154;DHT22;57519;51.494;-2.626;2023-04-06T02:46:54;9.74;94.72
70154;DHT22;57519;51.494;-2.626;2023-04-06T02:49:19;9.69;94.68
70154;DHT22;57519;51.494;-2.626;2023-04-06T02:51:45;9.73;94.51
70154;DHT22;57519;51.494;-2.626;2023-04-06T02:54:11;9.69;94.46
70154;DHT22;57519;51.494;-2.626;2023-04-06T02:56:36;9.64;94.39
70154;DHT22;57519;51.494;-2.626;2023-04-06T02:59:01;9.67;94.32
70154;DHT22;57519;51.494;-2.626;2023-04-06T03:01:27;9.57;94.32
70154;DHT22;57519;51.494;-2.626;2023-04-06T03:03:52;9.54;94.29
70154;DHT22;57519;51.494;-2.626;2023-04-06T03:06:18;9.48;94.29
70154;DHT22;57519;51.494;-2.626;2023-04-06T03:08:43;9.44;94.38
70154;DHT22;57519;51.494;-2.626;2023-04-06T03:11:09;9.37;94.51
70154;DHT22;57519;51.494;-2.626;2023-04-06T03:13:36;9.39;94.50
70154;DHT22;57519;51.494;-2.626;2023-04-06T03:16:04;9.35;94.57
70154;DHT22;57519;51.494;-2.626;2023-04-06T03:18:31;9.28;94.67
70154;DHT22;57519;51.494;-2.626;2023-04-06T03:20:57;9.30;94.72
70154;DHT22;57519;51.494;-2.626;2023-04-06T03:23:23;9.26;94.72
70154;DHT22;57519;51.494;-2.626;2023-04-06T03:25:48;9.25;94.72
70154;DHT22;57519;51.494;-2.626;2023-04-06T03:28:15;9.19;94.70
70154;DHT22;57519;51.494;-2.626;2023-04-06T03:30:41;9.19;94.65
70154;DHT22;57519;51.494;-2.626;2023-04-06T03:33:06;9.19;94.62
70154;DHT22;57519;51.494;-2.626;2023-04-06T03:35:32;9.20;94.70
70154;DHT22;57519;51.494;-2.626;2023-04-06T03:37:57;9.28;94.93
70154;DHT22;57519;51.494;-2.626;2023-04-06T03:40:23;9.32;94.96
70154;DHT22;57519;51.494;-2.626;2023-04-06T03:42:48;9.37;94.93
70154;DHT22;57519;51.494;-2.626;2023-04-06T03:45:14;9.46;94.74
70154;DHT22;57519;51.494;-2.626;2023-04-06T03:47:39;9.50;94.50
70154;DHT22;57519;51.494;-2.626;2023-04-06T03:50:05;9.54;94.38
70154;DHT22;57519;51.494;-2.626;2023-04-06T03:52:31;9.57;94.41
70154;DHT22;57519;51.494;-2.626;2023-04-06T03:54:56;9.54;94.34
70154;DHT22;57519;51.494;-2.626;2023-04-06T03:57:22;9.56;94.30
70154;DHT22;57519;51.494;-2.626;2023-04-06T03:59:47;9.53;94.36
70154;DHT22;57519;51.494;-2.626;2023-04-06T04:02:13;9.51;94.17
70154;DHT22;57519;51.494;-2.626;2023-04-06T04:04:38;9.48;94.13
70154;DHT22;57519;51.494;-2.626;2023-04-06T04:07:03;9.42;94.31
70154;DHT22;57519;51.494;-2.626;2023-04-06T04:09:30;9.43;94.52
70154;DHT22;57519;51.494;-2.626;2023-04-06T04:11:55;9.47;94.55
70154;DHT22;57519;51.494;-2.626;2023-04-06T04:14:21;9.44;94.60
70154;DHT22;57519;51.494;-2.626;2023-04-06T04:16:46;9.46;94.60
70154;DHT22;57519;51.494;-2.626;2023-04-06T04:19:11;9.43;94.63
70154;DHT22;57519;51.494;-2.626;2023-04-06T04:21:46;9.36;94.48
70154;DHT22;57519;51.494;-2.626;2023-04-06T04:24:12;9.33;94.58
70154;DHT22;57519;51.494;-2.626;2023-04-06T04:26:39;9.28;94.64
70154;DHT22;57519;51.494;-2.626;2023-04-06T04:29:04;9.29;94.62
70154;DHT22;57519;51.494;-2.626;2023-04-06T04:31:30;9.25;94.67
70154;DHT22;57519;51.494;-2.626;2023-04-06T04:33:56;9.22;94.55
70154;DHT22;57519;51.494;-2.626;2023-04-06T04:36:22;9.18;94.60
70154;DHT22;57519;51.494;-2.626;2023-04-06T04:38:48;9.09;94.67
70154;DHT22;57519;51.494;-2.626;2023-04-06T04:41:13;9.05;94.80
70154;DHT22;57519;51.494;-2.626;2023-04-06T04:43:39;9.09;94.93
70154;DHT22;57519;51.494;-2.626;2023-04-06T04:46:04;9.12;95.01
70154;DHT22;57519;51.494;-2.626;2023-04-06T04:48:30;9.16;95.10
70154;DHT22;57519;51.494;-2.626;2023-04-06T04:50:56;9.19;95.13
70154;DHT22;57519;51.494;-2.626;2023-04-06T04:53:21;9.23;95.19
70154;DHT22;57519;51.494;-2.626;2023-04-06T04:55:47;9.36;95.26
70154;DHT22;57519;51.494;-2.626;2023-04-06T04:58:12;9.39;95.20
70154;DHT22;57519;51.494;-2.626;2023-04-06T05:04:03;9.37;95.30
70154;DHT22;57519;51.494;-2.626;2023-04-06T05:06:28;9.35;95.28
70154;DHT22;57519;51.494;-2.626;2023-04-06T05:08:53;9.30;95.32
70154;DHT22;57519;51.494;-2.626;2023-04-06T05:11:19;9.33;95.49
70154;DHT22;57519;51.494;-2.626;2023-04-06T05:13:45;9.39;95.51
70154;DHT22;57519;51.494;-2.626;2023-04-06T05:16:11;9.36;95.57
70154;DHT22;57519;51.494;-2.626;2023-04-06T05:18:36;9.40;95.62
70154;DHT22;57519;51.494;-2.626;2023-04-06T05:21:02;9.40;95.66
70154;DHT22;57519;51.494;-2.626;2023-04-06T05:23:27;9.37;95.57
70154;DHT22;57519;51.494;-2.626;2023-04-06T05:25:52;9.42;95.56
70154;DHT22;57519;51.494;-2.626;2023-04-06T05:28:18;9.37;95.60
70154;DHT22;57519;51.494;-2.626;2023-04-06T05:30:44;9.50;95.65
70154;DHT22;57519;51.494;-2.626;2023-04-06T05:33:11;9.51;95.47
70154;DHT22;57519;51.494;-2.626;2023-04-06T05:35:36;9.57;95.38
70154;DHT22;57519;51.494;-2.626;2023-04-06T05:38:02;9.69;95.28
70154;DHT22;57519;51.494;-2.626;2023-04-06T05:40:27;9.66;94.96
70154;DHT22;57519;51.494;-2.626;2023-04-06T05:42:53;9.66;94.97
70154;DHT22;57519;51.494;-2.626;2023-04-06T05:45:18;9.67;95.03
70154;DHT22;57519;51.494;-2.626;2023-04-06T05:47:44;9.66;95.01
70154;DHT22;57519;51.494;-2.626;2023-04-06T05:50:11;9.70;95.06
70154;DHT22;57519;51.494;-2.626;2023-04-06T05:52:37;9.67;95.02
70154;DHT22;57519;51.494;-2.626;2023-04-06T05:55:03;9.71;94.97
70154;DHT22;57519;51.494;-2.626;2023-04-06T05:57:28;9.70;95.06
70154;DHT22;57519;51.494;-2.626;2023-04-06T05:59:54;9.85;95.03
70154;DHT22;57519;51.494;-2.626;2023-04-06T06:02:20;9.81;94.83
70154;DHT22;57519;51.494;-2.626;2023-04-06T06:04:46;9.81;94.70
70154;DHT22;57519;51.494;-2.626;2023-04-06T06:07:12;9.85;94.45
70154;DHT22;57519;51.494;-2.626;2023-04-06T06:09:37;9.85;94.16
70154;DHT22;57519;51.494;-2.626;2023-04-06T06:12:02;9.81;94.18
70154;DHT22;57519;51.494;-2.626;2023-04-06T06:14:28;9.83;94.06
70154;DHT22;57519;51.494;-2.626;2023-04-06T06:16:54;9.78;93.93
70154;DHT22;57519;51.494;-2.626;2023-04-06T06:19:19;9.83;93.66
70154;DHT22;57519;51.494;-2.626;2023-04-06T06:21:45;9.88;93.43
70154;DHT22;57519;51.494;-2.626;2023-04-06T06:24:10;9.94;93.07
70154;DHT22;57519;51.494;-2.626;2023-04-06T06:26:36;10.04;92.76
70154;DHT22;57519;51.494;-2.626;2023-04-06T06:29:03;10.06;92.53
70154;DHT22;57519;51.494;-2.626;2023-04-06T06:31:30;10.14;92.56
70154;DHT22;57519;51.494;-2.626;2023-04-06T06:33:55;10.22;92.31
70154;DHT22;57519;51.494;-2.626;2023-04-06T06:36:22;10.22;91.81
70154;DHT22;57519;51.494;-2.626;2023-04-06T06:38:47;10.22;91.42
70154;DHT22;57519;51.494;-2.626;2023-04-06T06:41:13;10.29;91.74
70154;DHT22;57519;51.494;-2.626;2023-04-06T06:43:38;10.38;91.08
70154;DHT22;57519;51.494;-2.626;2023-04-06T06:46:04;10.48;90.92
70154;DHT22;57519;51.494;-2.626;2023-04-06T06:48:30;10.69;90.66
70154;DHT22;57519;51.494;-2.626;2023-04-06T06:50:56;10.80;90.39
70154;DHT22;57519;51.494;-2.626;2023-04-06T06:53:23;10.79;90.41
70154;DHT22;57519;51.494;-2.626;2023-04-06T06:55:48;10.63;90.26
70154;DHT22;57519;51.494;-2.626;2023-04-06T06:58:14;10.52;90.48
70154;DHT22;57519;51.494;-2.626;2023-04-06T07:00:40;10.55;90.93
70154;DHT22;57519;51.494;-2.626;2023-04-06T07:03:05;10.52;90.77
70154;DHT22;57519;51.494;-2.626;2023-04-06T07:05:31;10.53;91.05
70154;DHT22;57519;51.494;-2.626;2023-04-06T07:07:56;10.52;90.91
70154;DHT22;57519;51.494;-2.626;2023-04-06T07:10:22;10.56;90.81
70154;DHT22;57519;51.494;-2.626;2023-04-06T07:12:47;10.55;90.62
70154;DHT22;57519;51.494;-2.626;2023-04-06T07:15:13;10.50;90.48
70154;DHT22;57519;51.494;-2.626;2023-04-06T07:17:38;10.49;90.34
70154;DHT22;57519;51.494;-2.626;2023-04-06T07:20:06;10.49;90.40
70154;DHT22;57519;51.494;-2.626;2023-04-06T07:22:32;10.52;90.12
70154;DHT22;57519;51.494;-2.626;2023-04-06T07:24:57;10.53;89.86
70154;DHT22;57519;51.494;-2.626;2023-04-06T07:27:23;10.48;90.02
70154;DHT22;57519;51.494;-2.626;2023-04-06T07:29:48;10.36;89.57
70154;DHT22;57519;51.494;-2.626;2023-04-06T07:32:14;10.38;89.71
70154;DHT22;57519;51.494;-2.626;2023-04-06T07:34:39;10.38;89.84
70154;DHT22;57519;51.494;-2.626;2023-04-06T07:37:05;10.32;89.56
70154;DHT22;57519;51.494;-2.626;2023-04-06T07:39:31;10.32;89.52
70154;DHT22;57519;51.494;-2.626;2023-04-06T07:41:56;10.31;89.56
70154;DHT22;57519;51.494;-2.626;2023-04-06T07:44:22;10.32;89.66
70154;DHT22;57519;51.494;-2.626;2023-04-06T07:46:47;10.45;89.58
70154;DHT22;57519;51.494;-2.626;2023-04-06T07:49:13;10.56;89.15
70154;DHT22;57519;51.494;-2.626;2023-04-06T07:51:39;10.43;88.82
70154;DHT22;57519;51.494;-2.626;2023-04-06T07:54:05;10.43;89.35
70154;DHT22;57519;51.494;-2.626;2023-04-06T07:56:30;10.46;89.29
70154;DHT22;57519;51.494;-2.626;2023-04-06T07:58:56;10.56;88.62
70154;DHT22;57519;51.494;-2.626;2023-04-06T08:01:23;10.63;88.87
70154;DHT22;57519;51.494;-2.626;2023-04-06T08:03:48;10.59;88.69
70154;DHT22;57519;51.494;-2.626;2023-04-06T08:06:15;10.56;88.60
70154;DHT22;57519;51.494;-2.626;2023-04-06T08:08:41;10.50;88.73
70154;DHT22;57519;51.494;-2.626;2023-04-06T08:11:07;10.53;88.35
70154;DHT22;57519;51.494;-2.626;2023-04-06T08:13:33;10.57;88.14
70154;DHT22;57519;51.494;-2.626;2023-04-06T08:15:59;10.62;88.24
70154;DHT22;57519;51.494;-2.626;2023-04-06T08:18:25;10.73;88.18
70154;DHT22;57519;51.494;-2.626;2023-04-06T08:20:51;10.73;87.75
70154;DHT22;57519;51.494;-2.626;2023-04-06T08:23:16;10.87;87.81
70154;DHT22;57519;51.494;-2.626;2023-04-06T08:25:42;10.94;87.26
70154;DHT22;57519;51.494;-2.626;2023-04-06T08:28:08;10.91;85.87
70154;DHT22;57519;51.494;-2.626;2023-04-06T08:30:34;11.04;85.96
70154;DHT22;57519;51.494;-2.626;2023-04-06T08:33:00;11.40;85.23
70154;DHT22;57519;51.494;-2.626;2023-04-06T08:35:27;11.43;84.65
70154;DHT22;57519;51.494;-2.626;2023-04-06T08:37:52;11.46;84.61
70154;DHT22;57519;51.494;-2.626;2023-04-06T08:40:18;11.27;84.66
70154;DHT22;57519;51.494;-2.626;2023-04-06T08:42:52;11.27;84.80
70154;DHT22;57519;51.494;-2.626;2023-04-06T08:45:17;11.39;84.55
70154;DHT22;57519;51.494;-2.626;2023-04-06T08:47:52;11.67;84.01
70154;DHT22;57519;51.494;-2.626;2023-04-06T08:50:20;11.79;82.64
70154;DHT22;57519;51.494;-2.626;2023-04-06T08:52:47;12.05;81.97
70154;DHT22;57519;51.494;-2.626;2023-04-06T08:55:12;12.31;80.73
70154;DHT22;57519;51.494;-2.626;2023-04-06T08:57:39;12.45;80.14
70154;DHT22;57519;51.494;-2.626;2023-04-06T09:00:06;12.20;79.26
70154;DHT22;57519;51.494;-2.626;2023-04-06T09:02:32;12.01;79.69
70154;DHT22;57519;51.494;-2.626;2023-04-06T09:04:58;11.98;80.62
70154;DHT22;57519;51.494;-2.626;2023-04-06T09:07:24;12.18;80.37
70154;DHT22;57519;51.494;-2.626;2023-04-06T09:09:50;12.16;79.80
70154;DHT22;57519;51.494;-2.626;2023-04-06T09:12:27;12.01;80.01
70154;DHT22;57519;51.494;-2.626;2023-04-06T09:14:54;11.82;77.59
70154;DHT22;57519;51.494;-2.626;2023-04-06T09:17:27;12.00;78.00
70154;DHT22;57519;51.494;-2.626;2023-04-06T09:19:53;12.11;77.33
70154;DHT22;57519;51.494;-2.626;2023-04-06T09:22:19;12.16;77.06
70154;DHT22;57519;51.494;-2.626;2023-04-06T09:24:50;12.16;76.58
70154;DHT22;57519;51.494;-2.626;2023-04-06T09:27:16;12.18;75.62
70154;DHT22;57519;51.494;-2.626;2023-04-06T09:29:43;12.27;75.68
70154;DHT22;57519;51.494;-2.626;2023-04-06T09:32:09;12.30;75.00
70154;DHT22;57519;51.494;-2.626;2023-04-06T09:34:41;12.46;75.04
70154;DHT22;57519;51.494;-2.626;2023-04-06T09:37:17;12.65;73.81
70154;DHT22;57519;51.494;-2.626;2023-04-06T09:39:46;12.92;73.40
70154;DHT22;57519;51.494;-2.626;2023-04-06T09:42:24;12.85;72.87
70154;DHT22;57519;51.494;-2.626;2023-04-06T09:44:50;13.00;72.67
70154;DHT22;57519;51.494;-2.626;2023-04-06T09:47:16;12.93;72.01
70154;DHT22;57519;51.494;-2.626;2023-04-06T09:49:43;13.23;73.86
70154;DHT22;57519;51.494;-2.626;2023-04-06T09:52:11;13.30;72.54
70154;DHT22;57519;51.494;-2.626;2023-04-06T09:54:37;12.89;71.15
70154;DHT22;57519;51.494;-2.626;2023-04-06T09:57:11;12.97;70.83
70154;DHT22;57519;51.494;-2.626;2023-04-06T10:02:05;13.04;72.14
70154;DHT22;57519;51.494;-2.626;2023-04-06T10:04:43;12.83;71.61
70154;DHT22;57519;51.494;-2.626;2023-04-06T10:07:13;12.86;71.97
70154;DHT22;57519;51.494;-2.626;2023-04-06T10:09:44;12.85;72.86
70154;DHT22;57519;51.494;-2.626;2023-04-06T10:12:12;12.62;72.81
70154;DHT22;57519;51.494;-2.626;2023-04-06T10:14:39;12.58;72.52
70154;DHT22;57519;51.494;-2.626;2023-04-06T10:17:06;12.78;72.70
70154;DHT22;57519;51.494;-2.626;2023-04-06T10:19:55;13.09;72.95
70154;DHT22;57519;51.494;-2.626;2023-04-06T10:22:55;13.18;72.41
70154;DHT22;57519;51.494;-2.626;2023-04-06T10:25:30;13.09;73.15
70154;DHT22;57519;51.494;-2.626;2023-04-06T10:28:06;12.83;76.75
70154;DHT22;57519;51.494;-2.626;2023-04-06T10:30:33;12.55;78.99
70154;DHT22;57519;51.494;-2.626;2023-04-06T10:32:59;11.97;80.49
70154;DHT22;57519;51.494;-2.626;2023-04-06T10:38:45;10.45;86.89
70154;DHT22;57519;51.494;-2.626;2023-04-06T10:41:11;10.41;88.36
70154;DHT22;57519;51.494;-2.626;2023-04-06T10:43:39;10.39;88.20
70154;DHT22;57519;51.494;-2.626;2023-04-06T10:46:06;10.59;88.24
70154;DHT22;57519;51.494;-2.626;2023-04-06T10:48:45;10.39;86.55
70154;DHT22;57519;51.494;-2.626;2023-04-06T10:51:13;10.12;88.32
70154;DHT22;57519;51.494;-2.626;2023-04-06T10:53:46;10.04;87.69
70154;DHT22;57519;51.494;-2.626;2023-04-06T10:56:15;10.06;88.50
70154;DHT22;57519;51.494;-2.626;2023-04-06T10:58:47;10.15;89.45
70154;DHT22;57519;51.494;-2.626;2023-04-06T11:01:18;10.29;89.61
70154;DHT22;57519;51.494;-2.626;2023-04-06T11:03:49;10.53;90.34
70154;DHT22;57519;51.494;-2.626;2023-04-06T11:08:44;10.81;90.85
70154;DHT22;57519;51.494;-2.626;2023-04-06T11:11:15;10.90;88.68
70154;DHT22;57519;51.494;-2.626;2023-04-06T11:13:51;11.03;88.70
70154;DHT22;57519;51.494;-2.626;2023-04-06T11:16:24;11.18;88.25
70154;DHT22;57519;51.494;-2.626;2023-04-06T11:24:20;11.39;83.14
70154;DHT22;57519;51.494;-2.626;2023-04-06T11:26:50;11.73;84.79
70154;DHT22;57519;51.494;-2.626;2023-04-06T11:29:22;12.13;85.71
70154;DHT22;57519;51.494;-2.626;2023-04-06T11:31:53;12.18;83.21
70154;DHT22;57519;51.494;-2.626;2023-04-06T11:34:29;12.49;83.79
70154;DHT22;57519;51.494;-2.626;2023-04-06T11:40:30;13.13;80.01
70154;DHT22;57519;51.494;-2.626;2023-04-06T11:53:29;13.37;76.66
70154;DHT22;57519;51.494;-2.626;2023-04-06T11:59:17;13.46;75.72
70154;DHT22;57519;51.494;-2.626;2023-04-06T12:01:47;13.46;74.84
70154;DHT22;57519;51.494;-2.626;2023-04-06T12:04:13;13.65;75.49
70154;DHT22;57519;51.494;-2.626;2023-04-06T12:06:38;13.53;70.43
70154;DHT22;57519;51.494;-2.626;2023-04-06T12:09:04;13.71;72.20
70154;DHT22;57519;51.494;-2.626;2023-04-06T12:11:29;13.92;68.99
70154;DHT22;57519;51.494;-2.626;2023-04-06T12:13:57;14.02;70.57
70154;DHT22;57519;51.494;-2.626;2023-04-06T12:16:24;13.59;67.76
70154;DHT22;57519;51.494;-2.626;2023-04-06T12:18:51;13.30;69.17
70154;DHT22;57519;51.494;-2.626;2023-04-06T12:21:16;13.07;68.57
70154;DHT22;57519;51.494;-2.626;2023-04-06T12:23:42;13.26;66.07
70154;DHT22;57519;51.494;-2.626;2023-04-06T12:26:08;13.72;71.90
70154;DHT22;57519;51.494;-2.626;2023-04-06T12:28:33;14.01;72.72
70154;DHT22;57519;51.494;-2.626;2023-04-06T12:30:59;13.78;71.40
70154;DHT22;57519;51.494;-2.626;2023-04-06T12:33:25;13.16;71.35
70154;DHT22;57519;51.494;-2.626;2023-04-06T12:35:51;12.80;72.15
70154;DHT22;57519;51.494;-2.626;2023-04-06T12:38:16;12.37;71.31
70154;DHT22;57519;51.494;-2.626;2023-04-06T12:40:42;12.20;69.85
70154;DHT22;57519;51.494;-2.626;2023-04-06T12:43:08;12.00;70.86
70154;DHT22;57519;51.494;-2.626;2023-04-06T12:45:34;11.66;72.90
70154;DHT22;57519;51.494;-2.626;2023-04-06T12:47:59;11.73;72.77
70154;DHT22;57519;51.494;-2.626;2023-04-06T12:50:25;11.79;72.19
70154;DHT22;57519;51.494;-2.626;2023-04-06T12:52:51;11.66;71.93
70154;DHT22;57519;51.494;-2.626;2023-04-06T12:55:17;11.45;73.08
70154;DHT22;57519;51.494;-2.626;2023-04-06T12:57:42;11.45;73.06
70154;DHT22;57519;51.494;-2.626;2023-04-06T13:00:08;11.67;72.88
70154;DHT22;57519;51.494;-2.626;2023-04-06T13:06:15;12.00;71.44
70154;DHT22;57519;51.494;-2.626;2023-04-06T13:08:40;12.13;71.65
70154;DHT22;57519;51.494;-2.626;2023-04-06T13:11:06;12.53;73.19
70154;DHT22;57519;51.494;-2.626;2023-04-06T13:13:34;12.55;67.46
70154;DHT22;57519;51.494;-2.626;2023-04-06T13:16:01;12.79;66.58
70154;DHT22;57519;51.494;-2.626;2023-04-06T13:18:28;13.00;67.00
70154;DHT22;57519;51.494;-2.626;2023-04-06T13:20:55;13.07;66.29
70154;DHT22;57519;51.494;-2.626;2023-04-06T13:23:21;13.00;67.13
70154;DHT22;57519;51.494;-2.626;2023-04-06T13:25:47;12.90;66.01
70154;DHT22;57519;51.494;-2.626;2023-04-06T13:28:13;13.24;69.17
70154;DHT22;57519;51.494;-2.626;2023-04-06T13:30:38;13.36;70.11
70154;DHT22;57519;51.494;-2.626;2023-04-06T13:33:04;13.34;70.46
70154;DHT22;57519;51.494;-2.626;2023-04-06T13:35:31;13.06;69.18
70154;DHT22;57519;51.494;-2.626;2023-04-06T13:37:57;13.00;71.22
70154;DHT22;57519;51.494;-2.626;2023-04-06T13:40:22;12.88;70.94
70154;DHT22;57519;51.494;-2.626;2023-04-06T13:42:48;12.71;71.22
70154;DHT22;57519;51.494;-2.626;2023-04-06T13:45:13;12.79;72.19
70154;DHT22;57519;51.494;-2.626;2023-04-06T13:47:39;12.93;73.52
70154;DHT22;57519;51.494;-2.626;2023-04-06T13:50:05;12.89;73.72
70154;DHT22;57519;51.494;-2.626;2023-04-06T13:52:31;13.02;72.95
70154;DHT22;57519;51.494;-2.626;2023-04-06T13:54:56;13.07;72.26
70154;DHT22;57519;51.494;-2.626;2023-04-06T13:57:21;13.28;71.75
70154;DHT22;57519;51.494;-2.626;2023-04-06T13:59:47;13.24;71.34
70154;DHT22;57519;51.494;-2.626;2023-04-06T14:02:14;12.85;70.95
70154;DHT22;57519;51.494;-2.626;2023-04-06T14:04:40;12.38;74.96
70154;DHT22;57519;51.494;-2.626;2023-04-06T14:07:05;11.97;78.88
70154;DHT22;57519;51.494;-2.626;2023-04-06T14:13:14;11.42;83.73
70154;DHT22;57519;51.494;-2.626;2023-04-06T14:25:26;11.76;80.73
70154;DHT22;57519;51.494;-2.626;2023-04-06T14:27:52;11.49;80.76
70154;DHT22;57519;51.494;-2.626;2023-04-06T14:30:17;11.34;82.23
70154;DHT22;57519;51.494;-2.626;2023-04-06T14:32:43;11.25;81.60
70154;DHT22;57519;51.494;-2.626;2023-04-06T14:35:09;11.66;82.03
70154;DHT22;57519;51.494;-2.626;2023-04-06T14:37:35;11.87;82.22
70154;DHT22;57519;51.494;-2.626;2023-04-06T14:43:23;12.68;78.05
70154;DHT22;57519;51.494;-2.626;2023-04-06T14:46:04;13.16;77.43
70154;DHT22;57519;51.494;-2.626;2023-04-06T14:51:51;13.17;76.91
70154;DHT22;57519;51.494;-2.626;2023-04-06T14:54:16;12.93;74.82
70154;DHT22;57519;51.494;-2.626;2023-04-06T14:56:42;12.99;77.67
70154;DHT22;57519;51.494;-2.626;2023-04-06T14:59:08;12.83;76.46
70154;DHT22;57519;51.494;-2.626;2023-04-06T15:01:36;12.56;76.50
70154;DHT22;57519;51.494;-2.626;2023-04-06T15:04:03;12.80;75.74
70154;DHT22;57519;51.494;-2.626;2023-04-06T15:06:28;13.21;75.87
70154;DHT22;57519;51.494;-2.626;2023-04-06T15:08:54;13.41;75.64
70154;DHT22;57519;51.494;-2.626;2023-04-06T15:13:45;13.06;74.02
70154;DHT22;57519;51.494;-2.626;2023-04-06T15:16:11;12.63;74.79
70154;DHT22;57519;51.494;-2.626;2023-04-06T15:18:36;12.61;75.54
70154;DHT22;57519;51.494;-2.626;2023-04-06T15:23:55;11.91;71.61
70154;DHT22;57519;51.494;-2.626;2023-04-06T15:26:21;11.61;75.39
70154;DHT22;57519;51.494;-2.626;2023-04-06T15:28:46;11.62;75.73
70154;DHT22;57519;51.494;-2.626;2023-04-06T15:31:19;11.69;75.32
70154;DHT22;57519;51.494;-2.626;2023-04-06T15:33:47;11.84;72.69
70154;DHT22;57519;51.494;-2.626;2023-04-06T15:36:29;12.27;72.12
70154;DHT22;57519;51.494;-2.626;2023-04-06T15:38:58;12.63;74.15
70154;DHT22;57519;51.494;-2.626;2023-04-06T15:41:24;12.93;73.84
70154;DHT22;57519;51.494;-2.626;2023-04-06T15:43:53;13.16;71.78
70154;DHT22;57519;51.494;-2.626;2023-04-06T15:46:20;13.18;68.15
70154;DHT22;57519;51.494;-2.626;2023-04-06T15:48:46;13.26;69.49
70154;DHT22;57519;51.494;-2.626;2023-04-06T15:51:12;13.04;68.89
70154;DHT22;57519;51.494;-2.626;2023-04-06T15:53:37;12.92;71.09
70154;DHT22;57519;51.494;-2.626;2023-04-06T15:56:04;12.53;72.74
70154;DHT22;57519;51.494;-2.626;2023-04-06T15:58:34;12.32;74.50
70154;DHT22;57519;51.494;-2.626;2023-04-06T16:01:00;12.32;74.74
70154;DHT22;57519;51.494;-2.626;2023-04-06T16:03:25;12.11;74.61
70154;DHT22;57519;51.494;-2.626;2023-04-06T16:05:52;12.04;73.75
70154;DHT22;57519;51.494;-2.626;2023-04-06T16:08:18;12.03;73.52
70154;DHT22;57519;51.494;-2.626;2023-04-06T16:17:28;12.18;66.81
70154;DHT22;57519;51.494;-2.626;2023-04-06T16:19:53;12.01;67.31
70154;DHT22;57519;51.494;-2.626;2023-04-06T16:22:19;11.80;67.18
70154;DHT22;57519;51.494;-2.626;2023-04-06T16:24:45;11.69;65.65
70154;DHT22;57519;51.494;-2.626;2023-04-06T16:27:10;11.65;66.06